Portada
METAR-TAF:

METAR-TAF

Aeroports :

Moline, Illinois, Estats Units d'Amèrica

latitud: 41-27-05N, longitud: 090-30-53W, altitud: 179 m

Observació

L'informe es va fer fa 15 minuts, a les 00:52 UTC
Vent 10 kt del Nord amb ràfegues de 18 kt
Temperatura -8°C
Humitat 67%
Pressió 1021 hPa
Visibilitat: 16.1 km
Cel clar

METAR: KMLI 200052Z 35010G18KT 10SM CLR M08/M13 A3016 RMK AO2 SLP222 T10781133

Hora: 19:07 (01:07 UTC)

Pronòstic

L'informe es va fer fa 1 hora i 29 minuts, a les 23:38 UTC
Pronòstic vàlid del 20 a les 00 UTC al 20 a les 24 UTC
Vent 12 kt del Nord/Nord-Oest
Visibilitat: 10 km
Cel clar
A partir de les 20 a les 1200 UTC
Vent 5 kt del Nord
Visibilitat: 10 km
Cel cobert a una alçada de 8000 ft
A partir de les 20 a les 1800 UTC
Vent 5 kt del Nord/Nord-Est
Visibilitat: 10 km
Cel cobert a una alçada de 3500 ft
neu

TAF: KMLI 192338Z 2000/2024 33012KT P6SM SKC FM201200 36005KT P6SM OVC080 FM201800 02005KT P6SM -SN OVC035

Observacions i pronòstics meteorològics de més de 4000 aeroports (METAR i TAF).

Les estacions disponibles són els punts grocs i vermells al mapa.

Posi el ratolí al punt desitjat per veure el nom de l'estació.

Feu clic per veure les observacions i els pronòstics meteorològics.

Per canviar el mapa: feu clic els botons verds amb una creu de color negre per apropar; al botó verd amb un guió per allunyar la imatge; o en les fletxes verdes per a mapes adjacents.


METAR-TAF: